sensor_id;sensor_type;location;lat;lon;timestamp;pressure;altitude;pressure_sealevel;temperature;humidity
7337;BME280;54510;42.016;23.098;2022-08-24T00:01:14;-21809.94;;;24.73;64.55
7337;BME280;54510;42.016;23.098;2022-08-24T00:03:41;-21797.00;;;24.25;65.67
7337;BME280;54510;42.016;23.098;2022-08-24T00:06:11;-21797.69;;;24.27;65.56
7337;BME280;54510;42.016;23.098;2022-08-24T00:08:38;-21798.63;;;24.31;66.18
7337;BME280;54510;42.016;23.098;2022-08-24T00:11:04;-21806.94;;;24.62;65.27
7337;BME280;54510;42.016;23.098;2022-08-24T00:13:31;-21803.53;;;24.49;65.63
7337;BME280;54510;42.016;23.098;2022-08-24T00:15:57;-21807.09;;;24.62;65.03
7337;BME280;54510;42.016;23.098;2022-08-24T00:18:22;-21812.13;;;24.81;64.56
7337;BME280;54510;42.016;23.098;2022-08-24T00:20:48;-21817.03;;;24.99;63.81
7337;BME280;54510;42.016;23.098;2022-08-24T00:23:14;-21815.53;;;24.94;64.03
7337;BME280;54510;42.016;23.098;2022-08-24T00:25:40;-21813.34;;;24.86;64.10
7337;BME280;54510;42.016;23.098;2022-08-24T00:28:06;-21810.22;;;24.74;65.30
7337;BME280;54510;42.016;23.098;2022-08-24T00:30:33;-21812.66;;;24.83;64.29
7337;BME280;54510;42.016;23.098;2022-08-24T00:32:59;-21798.63;;;24.31;66.01
7337;BME280;54510;42.016;23.098;2022-08-24T00:35:24;-21799.72;;;24.35;66.31
7337;BME280;54510;42.016;23.098;2022-08-24T00:37:51;-21809.13;;;24.70;65.62
7337;BME280;54510;42.016;23.098;2022-08-24T00:40:30;-21809.00;;;24.69;65.39
7337;BME280;54510;42.016;23.098;2022-08-24T00:42:58;-21822.06;;;25.18;63.57
7337;BME280;54510;42.016;23.098;2022-08-24T00:45:27;-21816.34;;;24.97;64.04
7337;BME280;54510;42.016;23.098;2022-08-24T00:47:58;-21811.44;;;24.78;64.95
7337;BME280;54510;42.016;23.098;2022-08-24T00:50:44;-21787.19;;;23.88;65.86
7337;BME280;54510;42.016;23.098;2022-08-24T00:53:22;-21795.38;;;24.19;66.15
7337;BME280;54510;42.016;23.098;2022-08-24T00:55:52;-21797.81;;;24.28;65.43
7337;BME280;54510;42.016;23.098;2022-08-24T00:58:24;-21794.13;;;24.14;65.46
7337;BME280;54510;42.016;23.098;2022-08-24T01:00:57;-21794.00;;;24.14;66.24
7337;BME280;54510;42.016;23.098;2022-08-24T01:03:24;-21789.38;;;23.96;66.09
7337;BME280;54510;42.016;23.098;2022-08-24T01:05:51;-21790.47;;;24.00;66.91
7337;BME280;54510;42.016;23.098;2022-08-24T01:08:17;-21791.81;;;24.06;66.29
7337;BME280;54510;42.016;23.098;2022-08-24T01:10:51;-21795.50;;;24.19;65.26
7337;BME280;54510;42.016;23.098;2022-08-24T01:13:18;-21795.91;;;24.21;65.24
7337;BME280;54510;42.016;23.098;2022-08-24T01:15:46;-21790.03;;;23.99;65.61
7337;BME280;54510;42.016;23.098;2022-08-24T01:18:18;-21784.59;;;23.79;66.43
7337;BME280;54510;42.016;23.098;2022-08-24T01:21:15;-21790.47;;;24.00;65.79
7337;BME280;54510;42.016;23.098;2022-08-24T01:26:10;-21793.19;;;24.11;65.01
7337;BME280;54510;42.016;23.098;2022-08-24T01:28:36;-21787.06;;;23.88;65.55
7337;BME280;54510;42.016;23.098;2022-08-24T01:31:04;-21795.50;;;24.19;64.98
7337;BME280;54510;42.016;23.098;2022-08-24T01:33:31;-21799.72;;;24.35;64.36
7337;BME280;54510;42.016;23.098;2022-08-24T01:36:01;-21810.34;;;24.74;63.72
7337;BME280;54510;42.016;23.098;2022-08-24T01:38:27;-21799.47;;;24.34;63.78
7337;BME280;54510;42.016;23.098;2022-08-24T01:40:57;-21799.72;;;24.35;64.43
7337;BME280;54510;42.016;23.098;2022-08-24T01:43:24;-21806.28;;;24.59;63.78
7337;BME280;54510;42.016;23.098;2022-08-24T01:45:50;-21804.63;;;24.53;63.12
7337;BME280;54510;42.016;23.098;2022-08-24T01:48:17;-21796.72;;;24.24;64.20
7337;BME280;54510;42.016;23.098;2022-08-24T01:50:44;-21795.38;;;24.19;64.90
7337;BME280;54510;42.016;23.098;2022-08-24T01:53:09;-21791.41;;;24.04;64.85
7337;BME280;54510;42.016;23.098;2022-08-24T01:55:35;-21790.59;;;24.01;64.14
7337;BME280;54510;42.016;23.098;2022-08-24T01:58:00;-21791.81;;;24.06;64.37
7337;BME280;54510;42.016;23.098;2022-08-24T02:00:27;-21794.53;;;24.16;64.19
7337;BME280;54510;42.016;23.098;2022-08-24T02:02:53;-21800.53;;;24.38;63.20
7337;BME280;54510;42.016;23.098;2022-08-24T02:05:19;-21803.69;;;24.50;63.33
7337;BME280;54510;42.016;23.098;2022-08-24T02:07:44;-21814.03;;;24.88;62.32
7337;BME280;54510;42.016;23.098;2022-08-24T02:10:11;-21815.94;;;24.95;61.72
7337;BME280;54510;42.016;23.098;2022-08-24T02:12:39;-21809.25;;;24.70;62.68
7337;BME280;54510;42.016;23.098;2022-08-24T02:15:05;-21804.63;;;24.53;63.64
7337;BME280;54510;42.016;23.098;2022-08-24T02:17:32;-21810.91;;;24.76;62.95
7337;BME280;54510;42.016;23.098;2022-08-24T02:19:59;-21816.22;;;24.96;62.34
7337;BME280;54510;42.016;23.098;2022-08-24T02:22:24;-21819.47;;;25.08;61.27
7337;BME280;54510;42.016;23.098;2022-08-24T02:24:50;-21803.41;;;24.49;62.77
7337;BME280;54510;42.016;23.098;2022-08-24T02:27:15;-21799.59;;;24.34;63.71
7337;BME280;54510;42.016;23.098;2022-08-24T02:29:41;-21798.63;;;24.31;63.96
7337;BME280;54510;42.016;23.098;2022-08-24T02:32:07;-21804.09;;;24.51;63.64
7337;BME280;54510;42.016;23.098;2022-08-24T02:34:33;-21796.19;;;24.22;63.98
7337;BME280;54510;42.016;23.098;2022-08-24T02:36:58;-21798.91;;;24.32;63.75
7337;BME280;54510;42.016;23.098;2022-08-24T02:39:25;-21797.13;;;24.25;63.71
7337;BME280;54510;42.016;23.098;2022-08-24T02:41:51;-21794.41;;;24.15;63.70
7337;BME280;54510;42.016;23.098;2022-08-24T02:44:16;-21805.72;;;24.57;63.08
7337;BME280;54510;42.016;23.098;2022-08-24T02:46:42;-21804.63;;;24.53;62.67
7337;BME280;54510;42.016;23.098;2022-08-24T02:49:08;-21802.88;;;24.47;62.85
7337;BME280;54510;42.016;23.098;2022-08-24T02:51:33;-21802.19;;;24.44;63.19
7337;BME280;54510;42.016;23.098;2022-08-24T02:54:00;-21809.94;;;24.73;62.03
7337;BME280;54510;42.016;23.098;2022-08-24T02:56:27;-21803.94;;;24.51;62.50
7337;BME280;54510;42.016;23.098;2022-08-24T02:58:57;-21791.69;;;24.05;63.03
7337;BME280;54510;42.016;23.098;2022-08-24T03:01:24;-21793.03;;;24.10;63.09
7337;BME280;54510;42.016;23.098;2022-08-24T03:03:50;-21783.63;;;23.75;64.47
7337;BME280;54510;42.016;23.098;2022-08-24T03:06:16;-21801.50;;;24.42;63.00
7337;BME280;54510;42.016;23.098;2022-08-24T03:08:41;-21802.72;;;24.46;62.77
7337;BME280;54510;42.016;23.098;2022-08-24T03:11:07;-21808.31;;;24.67;61.81
7337;BME280;54510;42.016;23.098;2022-08-24T03:13:34;-21807.91;;;24.65;61.92
7337;BME280;54510;42.016;23.098;2022-08-24T03:15:59;-21795.63;;;24.20;62.77
7337;BME280;54510;42.016;23.098;2022-08-24T03:18:26;-21794.53;;;24.16;62.93
7337;BME280;54510;42.016;23.098;2022-08-24T03:20:56;-21784.72;;;23.79;63.98
7337;BME280;54510;42.016;23.098;2022-08-24T03:23:22;-21782.69;;;23.72;64.70
7337;BME280;54510;42.016;23.098;2022-08-24T03:25:48;-21792.78;;;24.09;62.79
7337;BME280;54510;42.016;23.098;2022-08-24T03:28:14;-21798.63;;;24.31;62.54
7337;BME280;54510;42.016;23.098;2022-08-24T03:30:40;-21798.09;;;24.29;62.08
7337;BME280;54510;42.016;23.098;2022-08-24T03:33:06;-21804.09;;;24.51;61.71
7337;BME280;54510;42.016;23.098;2022-08-24T03:35:32;-21803.41;;;24.49;61.30
7337;BME280;54510;42.016;23.098;2022-08-24T03:37:59;-21808.72;;;24.68;60.88
7337;BME280;54510;42.016;23.098;2022-08-24T03:40:25;-21801.63;;;24.42;60.70
7337;BME280;54510;42.016;23.098;2022-08-24T03:42:51;-21792.22;;;24.07;62.50
7337;BME280;54510;42.016;23.098;2022-08-24T03:45:17;-21794.69;;;24.16;63.27
7337;BME280;54510;42.016;23.098;2022-08-24T03:47:42;-21789.22;;;23.96;62.85
7337;BME280;54510;42.016;23.098;2022-08-24T03:50:10;-21787.31;;;23.89;63.31
7337;BME280;54510;42.016;23.098;2022-08-24T03:52:35;-21789.22;;;23.96;62.90
7337;BME280;54510;42.016;23.098;2022-08-24T03:55:04;-21785.81;;;23.83;63.30
7337;BME280;54510;42.016;23.098;2022-08-24T03:57:30;-21794.00;;;24.14;62.69
7337;BME280;54510;42.016;23.098;2022-08-24T03:59:56;-21805.59;;;24.57;61.27
7337;BME280;54510;42.016;23.098;2022-08-24T04:02:22;-21798.78;;;24.31;62.09
7337;BME280;54510;42.016;23.098;2022-08-24T04:04:47;-21797.13;;;24.25;61.64
7337;BME280;54510;42.016;23.098;2022-08-24T04:07:12;-21789.38;;;23.96;62.75
7337;BME280;54510;42.016;23.098;2022-08-24T04:09:38;-21794.28;;;24.15;62.13
7337;BME280;54510;42.016;23.098;2022-08-24T04:12:04;-21789.78;;;23.98;62.97
7337;BME280;54510;42.016;23.098;2022-08-24T04:14:29;-21797.00;;;24.25;62.20
7337;BME280;54510;42.016;23.098;2022-08-24T04:16:55;-21786.63;;;23.86;62.96
7337;BME280;54510;42.016;23.098;2022-08-24T04:19:20;-21786.91;;;23.87;63.05
7337;BME280;54510;42.016;23.098;2022-08-24T04:21:46;-21784.88;;;23.80;62.91
7337;BME280;54510;42.016;23.098;2022-08-24T04:24:11;-21783.78;;;23.76;63.26
7337;BME280;54510;42.016;23.098;2022-08-24T04:26:38;-21794.41;;;24.15;62.02
7337;BME280;54510;42.016;23.098;2022-08-24T04:29:06;-21799.88;;;24.35;61.39
7337;BME280;54510;42.016;23.098;2022-08-24T04:31:36;-21810.75;;;24.76;60.31
7337;BME280;54510;42.016;23.098;2022-08-24T04:34:02;-21798.63;;;24.31;61.22
7337;BME280;54510;42.016;23.098;2022-08-24T04:36:28;-21801.91;;;24.43;61.24
7337;BME280;54510;42.016;23.098;2022-08-24T04:38:53;-21801.78;;;24.43;61.55
7337;BME280;54510;42.016;23.098;2022-08-24T04:41:19;-21796.47;;;24.23;61.43
7337;BME280;54510;42.016;23.098;2022-08-24T04:43:45;-21801.38;;;24.41;61.23
7337;BME280;54510;42.016;23.098;2022-08-24T04:46:12;-21806.81;;;24.61;60.93
7337;BME280;54510;42.016;23.098;2022-08-24T04:48:40;-21804.38;;;24.52;60.18
7337;BME280;54510;42.016;23.098;2022-08-24T04:51:07;-21810.63;;;24.75;59.91
7337;BME280;54510;42.016;23.098;2022-08-24T04:53:34;-21796.31;;;24.22;61.43
7337;BME280;54510;42.016;23.098;2022-08-24T04:56:01;-21806.28;;;24.59;61.20
7337;BME280;54510;42.016;23.098;2022-08-24T04:58:28;-21817.03;;;24.99;59.94
7337;BME280;54510;42.016;23.098;2022-08-24T05:00:54;-21817.16;;;25.00;59.52
7337;BME280;54510;42.016;23.098;2022-08-24T05:03:20;-21813.22;;;24.85;59.58
7337;BME280;54510;42.016;23.098;2022-08-24T05:05:48;-21806.00;;;24.58;60.65
7337;BME280;54510;42.016;23.098;2022-08-24T05:08:14;-21802.31;;;24.45;60.86
7337;BME280;54510;42.016;23.098;2022-08-24T05:10:42;-21806.00;;;24.58;60.71
7337;BME280;54510;42.016;23.098;2022-08-24T05:13:09;-21811.44;;;24.78;60.35
7337;BME280;54510;42.016;23.098;2022-08-24T05:15:35;-21815.66;;;24.94;59.44
7337;BME280;54510;42.016;23.098;2022-08-24T05:18:04;-21825.06;;;25.29;58.89
7337;BME280;54510;42.016;23.098;2022-08-24T05:20:31;-21830.91;;;25.51;57.75
7337;BME280;54510;42.016;23.098;2022-08-24T05:22:57;-21824.66;;;25.28;58.30
7337;BME280;54510;42.016;23.098;2022-08-24T05:25:23;-21827.91;;;25.40;59.23
7337;BME280;54510;42.016;23.098;2022-08-24T05:27:48;-21832.97;;;25.59;58.83
7337;BME280;54510;42.016;23.098;2022-08-24T05:30:15;-21829.28;;;25.45;59.19
7337;BME280;54510;42.016;23.098;2022-08-24T05:32:41;-21827.78;;;25.39;59.63
7337;BME280;54510;42.016;23.098;2022-08-24T05:35:07;-21832.13;;;25.55;58.99
7337;BME280;54510;42.016;23.098;2022-08-24T05:37:38;-21837.84;;;25.77;58.52
7337;BME280;54510;42.016;23.098;2022-08-24T05:40:06;-21834.47;;;25.64;58.56
7337;BME280;54510;42.016;23.098;2022-08-24T05:42:32;-21837.59;;;25.76;58.34
7337;BME280;54510;42.016;23.098;2022-08-24T05:44:57;-21845.34;;;26.05;58.30
7337;BME280;54510;42.016;23.098;2022-08-24T05:47:23;-21855.66;;;26.43;56.71
7337;BME280;54510;42.016;23.098;2022-08-24T05:49:49;-21862.44;;;26.68;56.03
7337;BME280;54510;42.016;23.098;2022-08-24T05:52:19;-21855.94;;;26.44;56.09
7337;BME280;54510;42.016;23.098;2022-08-24T05:54:54;-21861.38;;;26.64;56.13
7337;BME280;54510;42.016;23.098;2022-08-24T05:57:21;-21859.47;;;26.57;56.55
7337;BME280;54510;42.016;23.098;2022-08-24T05:59:48;-21869.13;;;26.93;55.65
7337;BME280;54510;42.016;23.098;2022-08-24T06:02:14;-21883.50;;;27.47;54.50
7337;BME280;54510;42.016;23.098;2022-08-24T06:04:40;-21894.75;;;27.89;53.56
7337;BME280;54510;42.016;23.098;2022-08-24T06:07:06;-21902.34;;;28.17;52.71
7337;BME280;54510;42.016;23.098;2022-08-24T06:09:36;-21893.25;;;27.83;53.77
7337;BME280;54510;42.016;23.098;2022-08-24T06:12:02;-21898.41;;;28.03;53.35
7337;BME280;54510;42.016;23.098;2022-08-24T06:14:27;-21905.06;;;28.27;53.33
7337;BME280;54510;42.016;23.098;2022-08-24T06:16:53;-21908.16;;;28.39;53.23
7337;BME280;54510;42.016;23.098;2022-08-24T06:19:19;-21903.44;;;28.21;53.86
7337;BME280;54510;42.016;23.098;2022-08-24T06:21:47;-21913.59;;;28.59;52.82
7337;BME280;54510;42.016;23.098;2022-08-24T06:24:14;-21917.94;;;28.76;52.19
7337;BME280;54510;42.016;23.098;2022-08-24T06:26:41;-21921.03;;;28.87;52.15
7337;BME280;54510;42.016;23.098;2022-08-24T06:29:26;-21930.38;;;29.22;51.90
7337;BME280;54510;42.016;23.098;2022-08-24T06:31:51;-21929.56;;;29.19;51.73
7337;BME280;54510;42.016;23.098;2022-08-24T06:34:17;-21923.34;;;28.96;51.87
7337;BME280;54510;42.016;23.098;2022-08-24T06:36:44;-21921.59;;;28.89;52.79
7337;BME280;54510;42.016;23.098;2022-08-24T06:39:10;-21931.06;;;29.25;52.29
7337;BME280;54510;42.016;23.098;2022-08-24T06:41:37;-21930.25;;;29.22;52.18
7337;BME280;54510;42.016;23.098;2022-08-24T06:44:03;-21929.03;;;29.17;52.28
7337;BME280;54510;42.016;23.098;2022-08-24T06:46:28;-21930.09;;;29.21;52.12
7337;BME280;54510;42.016;23.098;2022-08-24T06:48:54;-21934.44;;;29.37;51.84
7337;BME280;54510;42.016;23.098;2022-08-24T06:51:20;-21937.81;;;29.50;51.20
7337;BME280;54510;42.016;23.098;2022-08-24T06:53:47;-21940.53;;;29.60;50.87
7337;BME280;54510;42.016;23.098;2022-08-24T06:56:13;-21946.06;;;29.81;50.13
7337;BME280;54510;42.016;23.098;2022-08-24T06:58:39;-21949.31;;;29.93;50.07
7337;BME280;54510;42.016;23.098;2022-08-24T07:01:16;-21947.97;;;29.88;50.24
7337;BME280;54510;42.016;23.098;2022-08-24T07:03:42;-21952.00;;;30.03;49.78
7337;BME280;54510;42.016;23.098;2022-08-24T07:06:09;-21949.16;;;29.93;49.40
7337;BME280;54510;42.016;23.098;2022-08-24T07:08:35;-21945.53;;;29.79;50.17
7337;BME280;54510;42.016;23.098;2022-08-24T07:11:01;-21955.25;;;30.15;49.81
7337;BME280;54510;42.016;23.098;2022-08-24T07:13:27;-21962.00;;;30.41;49.32
7337;BME280;54510;42.016;23.098;2022-08-24T07:15:55;-21963.91;;;30.48;49.08
7337;BME280;54510;42.016;23.098;2022-08-24T07:18:21;-21959.56;;;30.32;49.28
7337;BME280;54510;42.016;23.098;2022-08-24T07:20:47;-21941.47;;;29.64;51.00
7337;BME280;54510;42.016;23.098;2022-08-24T07:23:13;-21952.97;;;30.07;50.56
7337;BME280;54510;42.016;23.098;2022-08-24T07:25:40;-21969.28;;;30.68;48.85
7337;BME280;54510;42.016;23.098;2022-08-24T07:28:06;-21969.69;;;30.70;48.67
7337;BME280;54510;42.016;23.098;2022-08-24T07:30:31;-21973.47;;;30.84;48.51
7337;BME280;54510;42.016;23.098;2022-08-24T07:32:57;-21964.72;;;30.51;48.57
7337;BME280;54510;42.016;23.098;2022-08-24T07:35:24;-21952.28;;;30.04;49.64
7337;BME280;54510;42.016;23.098;2022-08-24T07:37:51;-21960.13;;;30.34;49.09
7337;BME280;54510;42.016;23.098;2022-08-24T07:40:17;-21971.06;;;30.75;47.91
7337;BME280;54510;42.016;23.098;2022-08-24T07:42:49;-21979.69;;;31.07;47.29
7337;BME280;54510;42.016;23.098;2022-08-24T07:45:15;-21974.69;;;30.88;48.31
7337;BME280;54510;42.016;23.098;2022-08-24T07:47:41;-21986.16;;;31.31;47.61
7337;BME280;54510;42.016;23.098;2022-08-24T07:50:08;-21968.63;;;30.66;48.60
7337;BME280;54510;42.016;23.098;2022-08-24T07:52:33;-21979.00;;;31.05;46.99
7337;BME280;54510;42.016;23.098;2022-08-24T07:54:59;-21989.41;;;31.44;46.71
7337;BME280;54510;42.016;23.098;2022-08-24T07:57:25;-21982.13;;;31.16;47.07
7337;BME280;54510;42.016;23.098;2022-08-24T07:59:51;-21983.59;;;31.22;46.02
7337;BME280;54510;42.016;23.098;2022-08-24T08:02:17;-21993.84;;;31.60;44.77
7337;BME280;54510;42.016;23.098;2022-08-24T08:04:42;-21988.84;;;31.42;45.81
7337;BME280;54510;42.016;23.098;2022-08-24T08:07:08;-21970.09;;;30.71;45.78
7337;BME280;54510;42.016;23.098;2022-08-24T08:09:37;-21975.50;;;30.91;45.40
7337;BME280;54510;42.016;23.098;2022-08-24T08:12:02;-21972.94;;;30.82;46.20
7337;BME280;54510;42.016;23.098;2022-08-24T08:14:28;-21977.13;;;30.97;45.53
7337;BME280;54510;42.016;23.098;2022-08-24T08:16:53;-21996.53;;;31.70;44.59
7337;BME280;54510;42.016;23.098;2022-08-24T08:19:19;-22009.47;;;32.19;42.80
7337;BME280;54510;42.016;23.098;2022-08-24T08:21:47;-21989.53;;;31.44;43.38
7337;BME280;54510;42.016;23.098;2022-08-24T08:24:31;-22001.94;;;31.91;43.42
7337;BME280;54510;42.016;23.098;2022-08-24T08:26:57;-22009.88;;;32.21;42.56
7337;BME280;54510;42.016;23.098;2022-08-24T08:29:24;-22001.66;;;31.90;43.01
7337;BME280;54510;42.016;23.098;2022-08-24T08:31:50;-22005.69;;;32.05;43.04
7337;BME280;54510;42.016;23.098;2022-08-24T08:34:19;-21998.97;;;31.80;43.22
7337;BME280;54510;42.016;23.098;2022-08-24T08:36:44;-22012.16;;;32.29;42.51
7337;BME280;54510;42.016;23.098;2022-08-24T08:39:12;-22015.66;;;32.42;42.45
7337;BME280;54510;42.016;23.098;2022-08-24T08:45:03;-22007.03;;;32.10;42.83
7337;BME280;54510;42.016;23.098;2022-08-24T09:04:23;-22025.47;;;32.79;41.03
7337;BME280;54510;42.016;23.098;2022-08-24T09:13:04;-22023.88;;;32.73;42.05
7337;BME280;54510;42.016;23.098;2022-08-24T09:17:40;-22030.19;;;32.97;41.94
7337;BME280;54510;42.016;23.098;2022-08-24T09:26:25;-22035.69;;;33.18;41.20
7337;BME280;54510;42.016;23.098;2022-08-24T09:31:48;-22025.09;;;32.78;41.43
7337;BME280;54510;42.016;23.098;2022-08-24T09:37:36;-22032.22;;;33.05;41.00
7337;BME280;54510;42.016;23.098;2022-08-24T09:43:14;-22021.31;;;32.64;42.86
7337;BME280;54510;42.016;23.098;2022-08-24T09:48:47;-22039.47;;;33.32;41.32
7337;BME280;54510;42.016;23.098;2022-08-24T10:00:07;-22042.03;;;33.42;41.10
7337;BME280;54510;42.016;23.098;2022-08-24T10:05:46;-22026.16;;;32.82;40.99
7337;BME280;54510;42.016;23.098;2022-08-24T10:11:00;-22028.16;;;32.89;41.03
7337;BME280;54510;42.016;23.098;2022-08-24T10:14:01;-22046.19;;;33.57;41.01
7337;BME280;54510;42.016;23.098;2022-08-24T10:16:47;-22037.59;;;33.25;41.26
7337;BME280;54510;42.016;23.098;2022-08-24T10:30:38;-22037.19;;;33.23;40.11
7337;BME280;54510;42.016;23.098;2022-08-24T10:46:48;-22069.28;;;34.44;38.18
7337;BME280;54510;42.016;23.098;2022-08-24T10:54:24;-22066.47;;;34.34;38.04
7337;BME280;54510;42.016;23.098;2022-08-24T11:00:09;-22055.72;;;33.93;38.72
7337;BME280;54510;42.016;23.098;2022-08-24T11:02:45;-22058.28;;;34.03;38.62
7337;BME280;54510;42.016;23.098;2022-08-24T11:05:16;-22065.66;;;34.31;37.73
7337;BME280;54510;42.016;23.098;2022-08-24T11:08:04;-22078.78;;;34.80;37.31
7337;BME280;54510;42.016;23.098;2022-08-24T11:10:36;-22078.78;;;34.80;37.80
7337;BME280;54510;42.016;23.098;2022-08-24T11:13:22;-22086.69;;;35.10;37.26
7337;BME280;54510;42.016;23.098;2022-08-24T11:15:55;-22099.69;;;35.59;36.48
7337;BME280;54510;42.016;23.098;2022-08-24T11:18:21;-22099.81;;;35.60;35.89
7337;BME280;54510;42.016;23.098;2022-08-24T11:20:51;-22104.38;;;35.77;35.74
7337;BME280;54510;42.016;23.098;2022-08-24T11:23:27;-22082.81;;;34.96;36.46
7337;BME280;54510;42.016;23.098;2022-08-24T11:26:17;-22086.44;;;35.09;36.21
7337;BME280;54510;42.016;23.098;2022-08-24T11:28:46;-22093.41;;;35.36;35.95
7337;BME280;54510;42.016;23.098;2022-08-24T11:31:34;-22101.03;;;35.64;35.65
7337;BME280;54510;42.016;23.098;2022-08-24T11:34:09;-22092.47;;;35.32;36.49
7337;BME280;54510;42.016;23.098;2022-08-24T11:36:40;-22102.09;;;35.69;35.77
7337;BME280;54510;42.016;23.098;2022-08-24T11:39:26;-22101.84;;;35.68;35.98
7337;BME280;54510;42.016;23.098;2022-08-24T11:47:54;-22093.13;;;35.35;35.88
7337;BME280;54510;42.016;23.098;2022-08-24T12:01:45;-22100.22;;;35.61;35.31
7337;BME280;54510;42.016;23.098;2022-08-24T12:04:29;-22102.38;;;35.70;35.47
7337;BME280;54510;42.016;23.098;2022-08-24T12:07:19;-22111.06;;;36.02;34.88
7337;BME280;54510;42.016;23.098;2022-08-24T12:10:13;-22099.03;;;35.57;35.84
7337;BME280;54510;42.016;23.098;2022-08-24T12:13:05;-22099.16;;;35.57;35.60
7337;BME280;54510;42.016;23.098;2022-08-24T12:18:42;-22106.91;;;35.87;35.41
7337;BME280;54510;42.016;23.098;2022-08-24T12:21:03;-22110.25;;;35.99;34.75
7337;BME280;54510;42.016;23.098;2022-08-24T12:23:43;-22107.44;;;35.89;34.74
7337;BME280;54510;42.016;23.098;2022-08-24T12:26:17;-22125.09;;;36.56;34.56
7337;BME280;54510;42.016;23.098;2022-08-24T12:28:49;-22122.16;;;36.45;33.62
7337;BME280;54510;42.016;23.098;2022-08-24T12:33:49;-22134.72;;;36.92;32.22
7337;BME280;54510;42.016;23.098;2022-08-24T12:36:29;-22129.25;;;36.71;33.03
7337;BME280;54510;42.016;23.098;2022-08-24T12:39:05;-22120.16;;;36.37;33.30
7337;BME280;54510;42.016;23.098;2022-08-24T12:41:35;-22120.81;;;36.39;33.19
7337;BME280;54510;42.016;23.098;2022-08-24T12:44:14;-22134.06;;;36.90;32.86
7337;BME280;54510;42.016;23.098;2022-08-24T12:46:41;-22126.31;;;36.60;33.27
7337;BME280;54510;42.016;23.098;2022-08-24T12:49:27;-22113.19;;;36.11;33.99
7337;BME280;54510;42.016;23.098;2022-08-24T12:52:16;-22132.97;;;36.86;33.65
7337;BME280;54510;42.016;23.098;2022-08-24T13:00:19;-22125.63;;;36.58;33.34
7337;BME280;54510;42.016;23.098;2022-08-24T13:02:55;-22137.38;;;37.02;33.63
7337;BME280;54510;42.016;23.098;2022-08-24T13:05:21;-22147.00;;;37.39;32.44
7337;BME280;54510;42.016;23.098;2022-08-24T13:07:49;-22150.47;;;37.52;32.25
7337;BME280;54510;42.016;23.098;2022-08-24T13:10:36;-22156.47;;;37.75;31.97
7337;BME280;54510;42.016;23.098;2022-08-24T13:13:07;-22164.59;;;38.06;31.78
7337;BME280;54510;42.016;23.098;2022-08-24T13:33:34;-22167.81;;;38.18;31.57
7337;BME280;54510;42.016;23.098;2022-08-24T13:43:58;-22179.00;;;38.60;30.79
7337;BME280;54510;42.016;23.098;2022-08-24T13:46:45;-22175.00;;;38.45;30.52
7337;BME280;54510;42.016;23.098;2022-08-24T13:57:37;-22180.06;;;38.64;30.08
7337;BME280;54510;42.016;23.098;2022-08-24T14:05:32;-22167.81;;;38.18;30.16
7337;BME280;54510;42.016;23.098;2022-08-24T14:25:32;-22130.19;;;36.75;32.08
7337;BME280;54510;42.016;23.098;2022-08-24T14:36:07;-22151.28;;;37.55;31.53
7337;BME280;54510;42.016;23.098;2022-08-24T14:38:41;-22121.09;;;36.40;33.46
7337;BME280;54510;42.016;23.098;2022-08-24T14:41:24;-22115.34;;;36.19;33.89
7337;BME280;54510;42.016;23.098;2022-08-24T14:46:50;-22095.13;;;35.42;36.39
7337;BME280;54510;42.016;23.098;2022-08-24T14:52:06;-22069.00;;;34.43;41.48
7337;BME280;54510;42.016;23.098;2022-08-24T15:00:21;-22030.47;;;32.98;46.62
7337;BME280;54510;42.016;23.098;2022-08-24T15:10:21;-22027.78;;;32.88;48.75
7337;BME280;54510;42.016;23.098;2022-08-24T15:12:56;-22021.03;;;32.63;49.68
7337;BME280;54510;42.016;23.098;2022-08-24T15:15:37;-22029.38;;;32.94;48.77
7337;BME280;54510;42.016;23.098;2022-08-24T15:18:10;-22029.13;;;32.93;49.16
7337;BME280;54510;42.016;23.098;2022-08-24T15:20:55;-22000.72;;;31.86;50.74
7337;BME280;54510;42.016;23.098;2022-08-24T15:26:05;-22019.69;;;32.58;46.29
7337;BME280;54510;42.016;23.098;2022-08-24T15:28:33;-22028.03;;;32.89;45.97
7337;BME280;54510;42.016;23.098;2022-08-24T15:31:02;-22023.19;;;32.71;45.64
7337;BME280;54510;42.016;23.098;2022-08-24T15:33:30;-22032.06;;;33.04;46.79
7337;BME280;54510;42.016;23.098;2022-08-24T15:36:16;-22030.19;;;32.97;47.42
7337;BME280;54510;42.016;23.098;2022-08-24T15:38:43;-22023.47;;;32.72;48.03
7337;BME280;54510;42.016;23.098;2022-08-24T15:43:42;-22016.19;;;32.44;48.62
7337;BME280;54510;42.016;23.098;2022-08-24T15:46:09;-22017.41;;;32.49;48.69
7337;BME280;54510;42.016;23.098;2022-08-24T15:48:35;-22006.38;;;32.07;49.92
7337;BME280;54510;42.016;23.098;2022-08-24T15:51:01;-22021.03;;;32.63;48.39
7337;BME280;54510;42.016;23.098;2022-08-24T15:53:31;-22029.78;;;32.96;46.78
7337;BME280;54510;42.016;23.098;2022-08-24T15:56:23;-22012.97;;;32.32;48.81
7337;BME280;54510;42.016;23.098;2022-08-24T15:58:47;-22014.19;;;32.37;48.74
7337;BME280;54510;42.016;23.098;2022-08-24T16:04:10;-22005.56;;;32.04;48.66
7337;BME280;54510;42.016;23.098;2022-08-24T16:06:40;-22007.59;;;32.12;47.42
7337;BME280;54510;42.016;23.098;2022-08-24T16:12:07;-22009.19;;;32.18;48.32
7337;BME280;54510;42.016;23.098;2022-08-24T16:17:24;-21992.09;;;31.54;49.46
7337;BME280;54510;42.016;23.098;2022-08-24T16:19:54;-21996.13;;;31.69;49.75
7337;BME280;54510;42.016;23.098;2022-08-24T16:33:02;-21997.34;;;31.73;49.06
7337;BME280;54510;42.016;23.098;2022-08-24T16:35:28;-21997.34;;;31.73;49.17
7337;BME280;54510;42.016;23.098;2022-08-24T16:37:55;-21999.50;;;31.82;48.64
7337;BME280;54510;42.016;23.098;2022-08-24T16:40:22;-21984.13;;;31.24;50.51
7337;BME280;54510;42.016;23.098;2022-08-24T16:42:48;-21981.31;;;31.13;51.22
7337;BME280;54510;42.016;23.098;2022-08-24T16:45:17;-21961.47;;;30.39;53.54
7337;BME280;54510;42.016;23.098;2022-08-24T16:47:45;-21959.44;;;30.31;53.16
7337;BME280;54510;42.016;23.098;2022-08-24T16:50:12;-21973.34;;;30.83;53.87
7337;BME280;54510;42.016;23.098;2022-08-24T16:52:37;-21973.06;;;30.82;55.59
7337;BME280;54510;42.016;23.098;2022-08-24T16:55:04;-21960.25;;;30.34;57.75